createdAt,value
2023-02-16T00:00:23.281Z,0.00
2023-02-16T00:01:23.251Z,0.00
2023-02-16T00:02:23.358Z,0.00
2023-02-16T00:03:23.107Z,0.00
2023-02-16T00:04:23.255Z,0.00
2023-02-16T00:05:23.188Z,0.00
2023-02-16T00:06:23.284Z,0.00
2023-02-16T00:07:23.148Z,0.00
2023-02-16T00:08:23.140Z,0.00
2023-02-16T00:09:22.940Z,0.00
2023-02-16T00:10:23.233Z,0.00
2023-02-16T00:11:23.238Z,0.00
2023-02-16T00:12:23.152Z,0.00
2023-02-16T00:13:23.149Z,0.00
2023-02-16T00:14:23.065Z,0.00
2023-02-16T00:15:22.911Z,0.00
2023-02-16T00:16:23.221Z,0.00
2023-02-16T00:17:23.076Z,0.00
2023-02-16T00:18:23.137Z,0.00
2023-02-16T00:19:23.039Z,0.00
2023-02-16T00:20:23.031Z,0.00
2023-02-16T00:21:23.022Z,0.00
2023-02-16T00:22:22.997Z,0.00
2023-02-16T00:23:23.132Z,0.00
2023-02-16T00:24:23.032Z,0.00
2023-02-16T00:25:23.026Z,0.00
2023-02-16T00:26:23.015Z,0.00
2023-02-16T00:27:22.833Z,0.00
2023-02-16T00:28:22.929Z,0.00
2023-02-16T00:29:23.004Z,0.00
2023-02-16T00:30:22.997Z,0.00
2023-02-16T00:31:23.006Z,0.00
2023-02-16T00:32:23.102Z,0.00
2023-02-16T00:33:22.882Z,0.00
2023-02-16T00:34:22.949Z,0.00
2023-02-16T00:35:22.869Z,0.00
2023-02-16T00:36:22.868Z,0.00
2023-02-16T00:37:22.943Z,0.00
2023-02-16T00:38:22.858Z,0.00
2023-02-16T00:39:22.922Z,0.00
2023-02-16T00:40:22.845Z,0.00
2023-02-16T00:41:22.842Z,0.00
2023-02-16T00:42:22.829Z,0.00
2023-02-16T00:43:22.810Z,0.00
2023-02-16T00:44:22.804Z,0.00
2023-02-16T00:45:22.614Z,0.00
2023-02-16T00:46:22.712Z,0.00
2023-02-16T00:47:22.656Z,0.00
2023-02-16T00:48:22.639Z,0.00
2023-02-16T00:49:22.635Z,0.00
2023-02-16T00:50:22.594Z,0.00
2023-02-16T00:51:26.197Z,0.00
2023-02-16T00:52:22.583Z,0.00
2023-02-16T00:53:22.566Z,0.00
2023-02-16T00:54:22.515Z,0.00
2023-02-16T00:55:22.565Z,0.00
2023-02-16T00:56:22.524Z,0.00
2023-02-16T00:57:22.510Z,0.00
2023-02-16T00:58:22.468Z,0.00
2023-02-16T00:59:22.478Z,0.00
2023-02-16T01:00:22.486Z,0.00
2023-02-16T01:01:22.496Z,0.00
2023-02-16T01:02:22.517Z,0.00
2023-02-16T01:03:22.492Z,0.00
2023-02-16T01:04:22.586Z,0.00
2023-02-16T01:05:22.571Z,0.00
2023-02-16T01:06:22.511Z,0.00
2023-02-16T01:07:22.464Z,0.00
2023-02-16T01:08:22.566Z,0.00
2023-02-16T01:09:22.495Z,0.00
2023-02-16T01:10:22.535Z,0.00
2023-02-16T01:11:22.606Z,0.00
2023-02-16T01:12:22.527Z,0.00
2023-02-16T01:13:22.524Z,0.00
2023-02-16T01:14:22.507Z,0.00
2023-02-16T01:15:22.486Z,0.00
2023-02-16T01:16:22.485Z,0.00
2023-02-16T01:17:22.484Z,0.00
2023-02-16T01:18:22.476Z,0.00
2023-02-16T01:19:22.379Z,0.00
2023-02-16T01:20:22.448Z,0.00
2023-02-16T01:21:22.509Z,0.00
2023-02-16T01:22:22.437Z,0.00
2023-02-16T01:23:22.372Z,0.00
2023-02-16T01:24:22.382Z,0.00
2023-02-16T01:25:22.382Z,0.00
2023-02-16T01:26:22.367Z,0.00
2023-02-16T01:27:22.443Z,0.00
2023-02-16T01:28:22.388Z,0.00
2023-02-16T01:29:22.280Z,0.00
2023-02-16T01:30:22.396Z,0.00
2023-02-16T01:31:22.533Z,0.00
2023-02-16T01:32:22.435Z,0.00
2023-02-16T01:33:22.340Z,0.00
2023-02-16T01:34:22.354Z,0.00
2023-02-16T01:35:22.284Z,0.00
2023-02-16T01:36:22.301Z,0.00
2023-02-16T01:37:22.382Z,0.00
2023-02-16T01:38:22.303Z,0.00
2023-02-16T01:39:22.179Z,0.00
2023-02-16T01:40:22.264Z,0.00
2023-02-16T01:41:22.239Z,0.00
2023-02-16T01:42:22.304Z,0.00
2023-02-16T01:43:22.025Z,0.00
2023-02-16T01:44:22.188Z,0.00
2023-02-16T01:45:22.177Z,0.00
2023-02-16T01:46:22.202Z,0.00
2023-02-16T01:47:22.001Z,0.00
2023-02-16T01:48:22.218Z,0.00
2023-02-16T01:49:22.201Z,0.00
2023-02-16T01:50:22.182Z,0.00
2023-02-16T01:51:21.947Z,0.00
2023-02-16T01:52:22.148Z,0.00
2023-02-16T01:53:22.207Z,0.00
2023-02-16T01:54:22.104Z,0.00
2023-02-16T01:55:22.151Z,0.00
2023-02-16T01:56:22.122Z,0.00
2023-02-16T01:57:22.096Z,0.00
2023-02-16T01:58:22.075Z,0.00
2023-02-16T01:59:22.143Z,0.00
2023-02-16T02:00:22.052Z,0.00
2023-02-16T02:01:22.108Z,0.00
2023-02-16T02:02:21.867Z,0.00
2023-02-16T02:03:22.036Z,0.00
2023-02-16T02:04:22.145Z,0.00
2023-02-16T02:05:22.101Z,0.00
2023-02-16T02:06:22.043Z,0.00
2023-02-16T02:07:21.989Z,0.00
2023-02-16T02:08:22.007Z,0.00
2023-02-16T02:09:22.013Z,0.00
2023-02-16T02:10:21.946Z,0.00
2023-02-16T02:11:22.050Z,0.00
2023-02-16T02:12:21.964Z,0.00
2023-02-16T02:13:21.972Z,0.00
2023-02-16T02:14:21.960Z,0.00
2023-02-16T02:15:21.955Z,0.00
2023-02-16T02:16:22.032Z,0.00
2023-02-16T02:17:21.959Z,0.00
2023-02-16T02:18:21.888Z,0.00
2023-02-16T02:19:21.756Z,0.00
2023-02-16T02:20:21.985Z,0.00
2023-02-16T02:21:21.913Z,0.00
2023-02-16T02:22:21.841Z,0.00
2023-02-16T02:23:21.850Z,0.00
2023-02-16T02:24:21.852Z,0.00
2023-02-16T02:25:21.709Z,0.00
2023-02-16T02:26:21.726Z,0.00
2023-02-16T02:27:21.625Z,0.00
2023-02-16T02:28:21.745Z,0.00
2023-02-16T02:29:21.757Z,0.00
2023-02-16T02:30:21.696Z,0.00
2023-02-16T02:31:21.762Z,0.00
2023-02-16T02:32:21.706Z,0.00
2023-02-16T02:33:21.555Z,0.00
2023-02-16T02:34:21.565Z,0.00
2023-02-16T02:35:21.521Z,0.00
2023-02-16T02:36:21.517Z,0.00
2023-02-16T02:37:21.529Z,0.00
2023-02-16T02:38:21.511Z,0.00
2023-02-16T02:39:21.516Z,0.00
2023-02-16T02:40:21.476Z,0.00
2023-02-16T02:41:21.467Z,0.00
2023-02-16T02:42:21.465Z,0.00
2023-02-16T02:43:21.485Z,0.00
2023-02-16T02:44:21.408Z,0.00
2023-02-16T02:45:21.519Z,0.00
2023-02-16T02:46:21.540Z,0.00
2023-02-16T02:47:21.511Z,0.00
2023-02-16T02:48:21.512Z,0.00
2023-02-16T02:49:21.600Z,0.00
2023-02-16T02:50:21.515Z,0.00
2023-02-16T02:51:21.589Z,0.00
2023-02-16T02:52:21.569Z,0.00
2023-02-16T02:53:21.370Z,0.00
2023-02-16T02:54:21.307Z,0.00
2023-02-16T02:55:21.547Z,0.00
2023-02-16T02:56:21.538Z,0.00
2023-02-16T02:57:21.319Z,0.00
2023-02-16T02:58:21.468Z,0.00
2023-02-16T02:59:21.553Z,0.00
2023-02-16T03:00:21.279Z,0.00
2023-02-16T03:01:21.531Z,0.00
2023-02-16T03:02:21.375Z,0.00
2023-02-16T03:03:21.516Z,0.00
2023-02-16T03:04:21.519Z,0.00
2023-02-16T03:05:21.525Z,0.00
2023-02-16T03:06:21.390Z,0.00
2023-02-16T03:07:21.393Z,0.00
2023-02-16T03:08:21.405Z,0.00
2023-02-16T03:09:21.418Z,0.00
2023-02-16T03:10:21.413Z,0.00
2023-02-16T03:11:21.343Z,0.00
2023-02-16T03:12:21.346Z,0.00
2023-02-16T03:13:21.348Z,0.00
2023-02-16T03:14:21.346Z,0.00
2023-02-16T03:15:21.341Z,0.00
2023-02-16T03:16:21.386Z,0.00
2023-02-16T03:17:21.355Z,0.00
2023-02-16T03:18:21.273Z,0.00
2023-02-16T03:19:21.284Z,0.00
2023-02-16T03:20:21.288Z,0.00
2023-02-16T03:21:21.374Z,0.00
2023-02-16T03:22:21.225Z,0.00
2023-02-16T03:23:21.246Z,0.00
2023-02-16T03:24:21.229Z,0.00
2023-02-16T03:25:21.251Z,0.00
2023-02-16T03:26:21.258Z,0.00
2023-02-16T03:27:21.324Z,0.00
2023-02-16T03:28:21.100Z,0.00
2023-02-16T03:29:21.115Z,0.00
2023-02-16T03:30:21.224Z,0.00
2023-02-16T03:31:21.207Z,0.00
2023-02-16T03:32:21.140Z,0.00
2023-02-16T03:33:21.160Z,0.00
2023-02-16T03:34:21.185Z,0.00
2023-02-16T03:35:21.060Z,0.00
2023-02-16T03:36:21.066Z,0.00
2023-02-16T03:37:21.080Z,0.00
2023-02-16T03:38:20.934Z,0.00
2023-02-16T03:39:21.022Z,0.00
2023-02-16T03:40:21.023Z,0.00
2023-02-16T03:41:21.042Z,0.00
2023-02-16T03:42:21.046Z,0.00
2023-02-16T03:43:21.048Z,0.00
2023-02-16T03:44:21.115Z,0.00
2023-02-16T03:45:20.964Z,0.00
2023-02-16T03:46:20.972Z,0.00
2023-02-16T03:47:20.816Z,0.00
2023-02-16T03:48:20.985Z,0.00
2023-02-16T03:49:21.004Z,0.00
2023-02-16T03:50:21.011Z,0.00
2023-02-16T03:51:20.965Z,0.00
2023-02-16T03:52:20.900Z,0.00
2023-02-16T03:53:20.927Z,0.00
2023-02-16T03:54:21.022Z,0.00
2023-02-16T03:55:20.961Z,0.00
2023-02-16T03:56:20.906Z,0.00
2023-02-16T03:57:20.741Z,0.00
2023-02-16T03:58:20.957Z,0.00
2023-02-16T03:59:20.782Z,0.00
2023-02-16T04:00:20.958Z,0.00
2023-02-16T04:01:20.847Z,0.00
2023-02-16T04:02:20.951Z,0.00
2023-02-16T04:03:20.696Z,0.00
2023-02-16T04:04:20.803Z,0.00
2023-02-16T04:05:20.836Z,0.00
2023-02-16T04:06:20.930Z,0.00
2023-02-16T04:07:20.943Z,0.00
2023-02-16T04:08:20.795Z,0.00
2023-02-16T04:09:20.795Z,0.00
2023-02-16T04:10:20.786Z,0.00
2023-02-16T04:11:20.698Z,0.00
2023-02-16T04:12:20.702Z,0.00
2023-02-16T04:13:20.640Z,0.00
2023-02-16T04:14:20.658Z,0.00
2023-02-16T04:15:20.677Z,0.00
2023-02-16T04:16:20.551Z,0.00
2023-02-16T04:17:20.574Z,0.00
2023-02-16T04:18:20.525Z,0.00
2023-02-16T04:19:20.530Z,0.00
2023-02-16T04:20:20.513Z,0.00
2023-02-16T04:21:20.493Z,0.00
2023-02-16T04:22:20.608Z,0.00
2023-02-16T04:23:20.519Z,0.00
2023-02-16T04:24:20.479Z,0.00
2023-02-16T04:25:20.511Z,0.00
2023-02-16T04:26:20.413Z,0.00
2023-02-16T04:27:20.425Z,0.00
2023-02-16T04:28:20.397Z,0.00
2023-02-16T04:29:20.417Z,0.00
2023-02-16T04:30:20.562Z,0.00
2023-02-16T04:31:20.662Z,0.00
2023-02-16T04:32:20.468Z,0.00
2023-02-16T04:33:20.548Z,0.00
2023-02-16T04:34:20.600Z,0.00
2023-02-16T04:35:20.414Z,0.00
2023-02-16T04:36:20.535Z,0.00
2023-02-16T04:37:20.556Z,0.00
2023-02-16T04:38:20.275Z,0.00
2023-02-16T04:39:20.360Z,0.00
2023-02-16T04:40:20.348Z,0.00
2023-02-16T04:41:20.509Z,0.00
2023-02-16T04:42:20.255Z,0.00
2023-02-16T04:43:20.301Z,0.00
2023-02-16T04:44:20.261Z,0.00
2023-02-16T04:45:20.488Z,0.00
2023-02-16T04:46:20.407Z,0.00
2023-02-16T04:47:20.325Z,0.00
2023-02-16T04:48:20.396Z,0.00
2023-02-16T04:49:20.481Z,0.00
2023-02-16T04:50:20.320Z,0.00
2023-02-16T04:51:20.299Z,0.00
2023-02-16T04:52:20.378Z,0.00
2023-02-16T04:53:20.375Z,0.00
2023-02-16T04:54:20.388Z,0.00
2023-02-16T04:55:20.326Z,0.00
2023-02-16T04:56:20.238Z,0.00
2023-02-16T04:57:20.402Z,0.00
2023-02-16T04:58:20.300Z,0.00
2023-02-16T04:59:20.348Z,0.00
2023-02-16T05:00:20.288Z,0.00
2023-02-16T05:01:20.291Z,0.00
2023-02-16T05:02:20.257Z,0.00
2023-02-16T05:03:20.061Z,0.00
2023-02-16T05:04:20.210Z,0.00
2023-02-16T05:05:20.163Z,0.00
2023-02-16T05:06:20.023Z,0.00
2023-02-16T05:07:20.274Z,0.00
2023-02-16T05:08:20.982Z,0.00
2023-02-16T05:09:20.183Z,0.00
2023-02-16T05:10:20.248Z,0.00
2023-02-16T05:11:20.301Z,0.00
2023-02-16T05:12:20.198Z,0.00
2023-02-16T05:13:20.163Z,0.00
2023-02-16T05:14:20.197Z,0.00
2023-02-16T05:15:20.091Z,0.00
2023-02-16T05:16:20.218Z,0.00
2023-02-16T05:17:20.119Z,0.00
2023-02-16T05:18:20.142Z,0.00
2023-02-16T05:19:20.168Z,0.00
2023-02-16T05:20:20.045Z,0.00
2023-02-16T05:21:20.050Z,0.00
2023-02-16T05:22:20.075Z,0.00
2023-02-16T05:23:20.090Z,0.00
2023-02-16T05:24:20.096Z,0.00
2023-02-16T05:25:20.023Z,0.00
2023-02-16T05:26:19.823Z,0.00
2023-02-16T05:27:19.823Z,0.00
2023-02-16T05:28:19.905Z,0.00
2023-02-16T05:29:20.101Z,0.00
2023-02-16T05:30:20.235Z,0.00
2023-02-16T05:31:20.109Z,0.00
2023-02-16T05:32:20.057Z,0.00
2023-02-16T05:33:20.044Z,0.00
2023-02-16T05:34:20.076Z,0.00
2023-02-16T05:35:20.038Z,0.00
2023-02-16T05:36:19.926Z,0.00
2023-02-16T05:37:19.990Z,0.00
2023-02-16T05:38:19.937Z,0.00
2023-02-16T05:39:19.738Z,0.00
2023-02-16T05:40:19.753Z,0.00
2023-02-16T05:41:19.874Z,0.00
2023-02-16T05:42:19.928Z,0.00
2023-02-16T05:43:19.690Z,0.00
2023-02-16T05:44:19.844Z,0.00
2023-02-16T05:45:19.810Z,0.00
2023-02-16T05:46:19.920Z,0.00
2023-02-16T05:47:19.805Z,0.00
2023-02-16T05:48:19.843Z,0.00
2023-02-16T05:49:19.820Z,0.00
2023-02-16T05:50:19.881Z,0.00
2023-02-16T05:51:19.838Z,0.00
2023-02-16T05:52:19.900Z,0.00
2023-02-16T05:53:19.810Z,0.00
2023-02-16T05:54:19.702Z,1.00
2023-02-16T05:55:19.776Z,0.00
2023-02-16T05:56:20.537Z,1.00
2023-02-16T05:57:19.535Z,1.00
2023-02-16T05:58:19.461Z,1.00
2023-02-16T05:59:19.504Z,1.00
2023-02-16T06:00:19.481Z,2.00
2023-02-16T06:01:20.719Z,2.00
2023-02-16T06:02:19.588Z,1.00
2023-02-16T06:03:19.591Z,1.00
2023-02-16T06:04:19.503Z,0.00
2023-02-16T06:05:19.455Z,4.00
2023-02-16T06:06:19.414Z,3.00
2023-02-16T06:07:19.419Z,7.00
2023-02-16T06:08:19.397Z,5.00
2023-02-16T06:09:19.419Z,3.00
2023-02-16T06:10:19.404Z,3.00
2023-02-16T06:11:19.372Z,5.00
2023-02-16T06:12:19.345Z,5.00
2023-02-16T06:13:19.371Z,9.00
2023-02-16T06:14:19.349Z,11.00
2023-02-16T06:15:19.464Z,8.00
2023-02-16T06:16:19.429Z,11.00
2023-02-16T06:17:19.302Z,14.00
2023-02-16T06:18:19.276Z,12.00
2023-02-16T06:19:19.333Z,18.00
2023-02-16T06:20:19.303Z,25.00
2023-02-16T06:21:19.311Z,36.00
2023-02-16T06:22:19.305Z,44.00
2023-02-16T06:23:19.293Z,50.00
2023-02-16T06:24:19.286Z,54.00
2023-02-16T06:25:19.356Z,68.00
2023-02-16T06:26:19.338Z,73.00
2023-02-16T06:27:19.214Z,88.00
2023-02-16T06:28:19.377Z,100.00
2023-02-16T06:29:19.202Z,110.00
2023-02-16T06:30:19.521Z,122.00
2023-02-16T06:31:19.418Z,132.00
2023-02-16T06:32:19.376Z,141.00
2023-02-16T06:33:19.179Z,153.00
2023-02-16T06:34:19.189Z,166.00
2023-02-16T06:35:19.156Z,184.00
2023-02-16T06:36:19.328Z,211.00
2023-02-16T06:37:19.410Z,249.00
2023-02-16T06:38:19.319Z,289.00
2023-02-16T06:39:19.328Z,324.00
2023-02-16T06:40:19.269Z,355.00
2023-02-16T06:41:19.350Z,382.00
2023-02-16T06:42:19.284Z,411.00
2023-02-16T06:43:19.219Z,455.00
2023-02-16T06:44:19.232Z,481.00
2023-02-16T06:45:19.323Z,519.00
2023-02-16T06:46:19.371Z,556.00
2023-02-16T06:47:19.272Z,577.00
2023-02-16T06:48:19.209Z,610.00
2023-02-16T06:49:19.229Z,663.00
2023-02-16T06:50:19.170Z,710.00
2023-02-16T06:51:19.260Z,748.00
2023-02-16T06:52:19.196Z,789.00
2023-02-16T06:53:19.125Z,833.00
2023-02-16T06:54:19.149Z,905.00
2023-02-16T06:55:19.129Z,976.00
2023-02-16T06:56:19.208Z,1086.00
2023-02-16T06:57:19.056Z,1165.00
2023-02-16T06:58:19.119Z,1256.00
2023-02-16T06:59:19.107Z,1335.00
2023-02-16T07:00:19.011Z,1414.00
2023-02-16T07:01:19.089Z,1500.00
2023-02-16T07:02:19.139Z,1595.00
2023-02-16T07:03:19.260Z,1667.00
2023-02-16T07:04:19.061Z,1725.00
2023-02-16T07:05:19.069Z,1828.00
2023-02-16T07:06:19.007Z,1926.00
2023-02-16T07:07:19.029Z,2037.00
2023-02-16T07:08:19.118Z,2155.00
2023-02-16T07:09:18.896Z,2281.00
2023-02-16T07:10:18.899Z,2366.00
2023-02-16T07:11:18.908Z,2389.00
2023-02-16T07:12:18.908Z,2434.00
2023-02-16T07:13:19.045Z,2549.00
2023-02-16T07:14:18.871Z,2687.00
2023-02-16T07:15:18.735Z,2625.00
2023-02-16T07:16:18.963Z,2578.00
2023-02-16T07:17:18.867Z,2677.00
2023-02-16T07:18:18.876Z,2775.00
2023-02-16T07:19:18.882Z,2911.00
2023-02-16T07:20:18.893Z,3118.00
2023-02-16T07:21:18.888Z,3327.00
2023-02-16T07:22:18.862Z,3454.00
2023-02-16T07:23:18.845Z,3583.00
2023-02-16T07:24:18.832Z,3740.00
2023-02-16T07:25:18.810Z,4024.00
2023-02-16T07:26:18.820Z,4164.00
2023-02-16T07:27:18.805Z,4152.00
2023-02-16T07:28:18.810Z,4359.00
2023-02-16T07:29:18.750Z,4570.00
2023-02-16T07:30:18.853Z,4647.00
2023-02-16T07:31:18.914Z,4723.00
2023-02-16T07:32:18.730Z,4785.00
2023-02-16T07:33:18.705Z,4839.00
2023-02-16T07:34:20.838Z,4985.00
2023-02-16T07:35:18.826Z,5120.00
2023-02-16T07:36:18.700Z,5120.00
2023-02-16T07:37:18.685Z,5350.00
2023-02-16T07:38:18.693Z,5781.00
2023-02-16T07:39:18.666Z,5633.00
2023-02-16T07:40:18.642Z,5112.00
2023-02-16T07:41:18.735Z,5543.00
2023-02-16T07:42:18.595Z,6284.00
2023-02-16T07:43:18.707Z,6504.00
2023-02-16T07:44:18.705Z,5747.00
2023-02-16T07:45:18.566Z,5251.00
2023-02-16T07:46:18.580Z,6475.00
2023-02-16T07:47:18.698Z,2903.00
2023-02-16T07:48:18.706Z,4124.00
2023-02-16T07:49:18.496Z,7040.00
2023-02-16T07:50:18.497Z,25483.00
2023-02-16T07:51:18.487Z,29121.00
2023-02-16T07:52:18.469Z,17835.00
2023-02-16T07:53:18.454Z,9963.00
2023-02-16T07:54:18.515Z,9204.00
2023-02-16T07:55:18.325Z,8044.00
2023-02-16T07:56:18.322Z,4003.00
2023-02-16T07:57:18.346Z,6610.00
2023-02-16T07:58:18.300Z,19659.00
2023-02-16T07:59:18.292Z,79025.00
2023-02-16T08:00:18.289Z,78035.00
2023-02-16T08:01:18.250Z,75242.00
2023-02-16T08:02:18.406Z,76083.00
2023-02-16T08:03:18.478Z,76992.00
2023-02-16T08:04:18.216Z,75732.00
2023-02-16T08:05:18.201Z,75537.00
2023-02-16T08:06:18.214Z,76044.00
2023-02-16T08:07:18.276Z,74791.00
2023-02-16T08:08:18.395Z,22590.00
2023-02-16T08:09:18.458Z,26242.00
2023-02-16T08:10:18.297Z,28824.00
2023-02-16T08:11:18.311Z,28100.00
2023-02-16T08:12:18.304Z,25811.00
2023-02-16T08:13:18.374Z,22628.00
2023-02-16T08:14:18.430Z,18337.00
2023-02-16T08:15:18.336Z,15042.00
2023-02-16T08:16:18.382Z,15244.00
2023-02-16T08:17:18.334Z,26550.00
2023-02-16T08:18:18.325Z,12549.00
2023-02-16T08:19:18.379Z,20314.00
2023-02-16T08:20:18.286Z,12482.00
2023-02-16T08:21:18.249Z,12171.00
2023-02-16T08:22:18.279Z,11265.00
2023-02-16T08:23:18.278Z,10465.00
2023-02-16T08:24:18.340Z,10514.00
2023-02-16T08:25:18.242Z,11014.00
2023-02-16T08:26:18.238Z,11308.00
2023-02-16T08:27:18.201Z,10678.00
2023-02-16T08:28:18.168Z,13261.00
2023-02-16T08:29:18.221Z,7091.00
2023-02-16T08:30:18.242Z,8114.00
2023-02-16T08:31:18.317Z,67905.00
2023-02-16T08:32:18.249Z,28837.00
2023-02-16T08:33:18.123Z,12253.00
2023-02-16T08:34:18.200Z,29746.00
2023-02-16T08:35:18.123Z,21129.00
2023-02-16T08:36:18.126Z,15702.00
2023-02-16T08:37:18.178Z,12225.00
2023-02-16T08:38:18.154Z,12416.00
2023-02-16T08:39:18.126Z,9970.00
2023-02-16T08:40:18.113Z,9226.00
2023-02-16T08:41:18.094Z,8114.00
2023-02-16T08:42:18.076Z,7572.00
2023-02-16T08:43:18.090Z,7350.00
2023-02-16T08:44:18.190Z,7049.00
2023-02-16T08:45:17.959Z,6895.00
2023-02-16T08:46:17.994Z,6693.00
2023-02-16T08:47:18.010Z,6527.00
2023-02-16T08:48:18.067Z,6412.00
2023-02-16T08:49:17.969Z,6283.00
2023-02-16T08:50:17.964Z,6207.00
2023-02-16T08:51:17.957Z,6111.00
2023-02-16T08:52:17.934Z,5978.00
2023-02-16T08:53:17.984Z,5819.00
2023-02-16T08:54:17.967Z,5630.00
2023-02-16T08:55:17.860Z,5444.00
2023-02-16T08:56:17.911Z,5301.00
2023-02-16T08:57:17.971Z,5231.00
2023-02-16T08:58:17.875Z,5225.00
2023-02-16T08:59:17.873Z,5230.00
2023-02-16T09:00:17.867Z,5260.00
2023-02-16T09:01:17.983Z,5264.00
2023-02-16T09:02:18.057Z,5286.00
2023-02-16T09:03:17.874Z,5348.00
2023-02-16T09:04:17.891Z,5457.00
2023-02-16T09:05:17.791Z,5571.00
2023-02-16T09:06:17.849Z,5701.00
2023-02-16T09:07:17.800Z,5836.00
2023-02-16T09:08:17.825Z,5909.00
2023-02-16T09:09:17.835Z,5988.00
2023-02-16T09:10:17.760Z,5932.00
2023-02-16T09:11:17.760Z,5873.00
2023-02-16T09:12:17.765Z,5997.00
2023-02-16T09:13:17.751Z,6161.00
2023-02-16T09:14:17.729Z,6354.00
2023-02-16T09:15:17.788Z,6521.00
2023-02-16T09:16:17.829Z,6698.00
2023-02-16T09:17:17.704Z,6834.00
2023-02-16T09:18:17.697Z,6801.00
2023-02-16T09:19:17.528Z,6814.00
2023-02-16T09:20:17.751Z,6895.00
2023-02-16T09:21:17.654Z,6974.00
2023-02-16T09:22:17.765Z,6957.00
2023-02-16T09:23:17.619Z,6892.00
2023-02-16T09:24:17.609Z,6809.00
2023-02-16T09:25:17.662Z,6748.00
2023-02-16T09:26:17.622Z,6904.00
2023-02-16T09:27:17.664Z,7185.00
2023-02-16T09:28:17.622Z,7591.00
2023-02-16T09:29:17.596Z,7911.00
2023-02-16T09:30:17.538Z,7898.00
2023-02-16T09:31:17.425Z,7721.00
2023-02-16T09:32:17.458Z,7497.00
2023-02-16T09:33:17.443Z,7391.00
2023-02-16T09:34:17.442Z,7236.00
2023-02-16T09:35:17.431Z,7165.00
2023-02-16T09:36:17.316Z,7026.00
2023-02-16T09:37:17.336Z,6852.00
2023-02-16T09:38:17.290Z,6590.00
2023-02-16T09:39:17.282Z,6307.00
2023-02-16T09:40:17.277Z,6055.00
2023-02-16T09:41:17.263Z,5915.00
2023-02-16T09:42:17.219Z,5923.00
2023-02-16T09:43:17.299Z,5877.00
2023-02-16T09:44:17.231Z,5715.00
2023-02-16T09:45:17.211Z,5638.00
2023-02-16T09:46:17.220Z,5543.00
2023-02-16T09:47:17.403Z,5432.00
2023-02-16T09:48:17.175Z,5302.00
2023-02-16T09:49:17.351Z,5208.00
2023-02-16T09:50:20.622Z,5100.00
2023-02-16T09:51:18.886Z,5023.00
2023-02-16T09:52:17.314Z,5014.00
2023-02-16T09:53:17.230Z,4970.00
2023-02-16T09:54:17.351Z,4958.00
2023-02-16T09:55:17.315Z,4892.00
2023-02-16T09:56:17.449Z,4793.00
2023-02-16T09:57:17.265Z,4809.00
2023-02-16T09:58:17.346Z,4912.00
2023-02-16T09:59:17.240Z,5167.00
2023-02-16T10:00:17.261Z,5529.00
2023-02-16T10:01:17.267Z,5720.00
2023-02-16T10:02:17.265Z,5830.00
2023-02-16T10:03:17.288Z,4849.00
2023-02-16T10:04:17.192Z,8698.00
2023-02-16T10:05:17.288Z,6904.00
2023-02-16T10:06:17.223Z,7301.00
2023-02-16T10:07:17.179Z,7515.00
2023-02-16T10:08:17.229Z,7433.00
2023-02-16T10:09:17.135Z,7154.00
2023-02-16T10:10:17.179Z,6757.00
2023-02-16T10:11:17.107Z,6453.00
2023-02-16T10:12:17.072Z,6346.00
2023-02-16T10:13:17.134Z,6246.00
2023-02-16T10:14:17.152Z,6223.00
2023-02-16T10:15:17.174Z,6457.00
2023-02-16T10:16:17.207Z,6691.00
2023-02-16T10:17:17.043Z,6741.00
2023-02-16T10:18:17.038Z,6705.00
2023-02-16T10:19:17.041Z,6674.00
2023-02-16T10:20:17.114Z,6842.00
2023-02-16T10:21:17.036Z,7344.00
2023-02-16T10:22:17.669Z,7956.00
2023-02-16T10:23:17.043Z,8261.00
2023-02-16T10:24:17.032Z,8567.00
2023-02-16T10:25:17.095Z,7807.00
2023-02-16T10:26:17.010Z,8685.00
2023-02-16T10:27:16.789Z,7404.00
2023-02-16T10:28:16.977Z,6927.00
2023-02-16T10:29:17.036Z,7148.00
2023-02-16T10:30:16.971Z,9189.00
2023-02-16T10:31:17.114Z,7312.00
2023-02-16T10:32:17.005Z,7102.00
2023-02-16T10:33:16.910Z,7382.00
2023-02-16T10:34:16.907Z,6873.00
2023-02-16T10:35:16.986Z,8955.00
2023-02-16T10:36:16.900Z,7807.00
2023-02-16T10:37:16.878Z,8140.00
2023-02-16T10:38:16.855Z,6956.00
2023-02-16T10:39:16.823Z,9331.00
2023-02-16T10:40:16.950Z,15710.00
2023-02-16T10:41:16.848Z,10824.00
2023-02-16T10:42:16.834Z,10618.00
2023-02-16T10:43:16.822Z,9029.00
2023-02-16T10:44:16.906Z,8104.00
2023-02-16T10:45:16.831Z,7827.00
2023-02-16T10:46:16.890Z,8556.00
2023-02-16T10:47:16.782Z,7585.00
2023-02-16T10:48:16.768Z,7283.00
2023-02-16T10:49:16.763Z,7579.00
2023-02-16T10:50:16.864Z,7436.00
2023-02-16T10:51:16.861Z,7407.00
2023-02-16T10:52:16.741Z,7753.00
2023-02-16T10:53:16.804Z,7921.00
2023-02-16T10:54:16.705Z,8091.00
2023-02-16T10:55:16.763Z,8101.00
2023-02-16T10:56:16.507Z,8221.00
2023-02-16T10:57:16.719Z,8274.00
2023-02-16T10:58:16.696Z,8520.00
2023-02-16T10:59:16.752Z,8233.00
2023-02-16T11:00:16.752Z,9812.00
2023-02-16T11:01:16.715Z,9696.00
2023-02-16T11:02:16.692Z,10494.00
2023-02-16T11:03:16.632Z,9947.00
2023-02-16T11:04:16.662Z,9087.00
2023-02-16T11:05:16.618Z,10228.00
2023-02-16T11:06:16.632Z,10273.00
2023-02-16T11:07:16.707Z,9731.00
2023-02-16T11:08:16.614Z,10274.00
2023-02-16T11:09:16.624Z,10745.00
2023-02-16T11:10:16.683Z,9293.00
2023-02-16T11:11:16.478Z,13591.00
2023-02-16T11:12:16.478Z,11682.00
2023-02-16T11:13:16.483Z,9457.00
2023-02-16T11:14:16.468Z,8930.00
2023-02-16T11:15:16.457Z,8625.00
2023-02-16T11:16:16.390Z,8770.00
2023-02-16T11:17:16.303Z,8519.00
2023-02-16T11:18:16.427Z,8277.00
2023-02-16T11:19:16.326Z,8008.00
2023-02-16T11:20:16.302Z,7802.00
2023-02-16T11:21:16.287Z,7540.00
2023-02-16T11:22:16.266Z,7460.00
2023-02-16T11:23:16.302Z,7201.00
2023-02-16T11:24:16.222Z,7245.00
2023-02-16T11:25:16.227Z,8070.00
2023-02-16T11:26:16.207Z,7546.00
2023-02-16T11:27:16.201Z,8969.00
2023-02-16T11:28:16.476Z,10739.00
2023-02-16T11:29:16.431Z,8491.00
2023-02-16T11:30:16.408Z,7624.00
2023-02-16T11:31:16.401Z,9557.00
2023-02-16T11:32:16.418Z,7874.00
2023-02-16T11:33:16.289Z,7452.00
2023-02-16T11:34:16.418Z,7586.00
2023-02-16T11:35:16.331Z,6710.00
2023-02-16T11:36:16.306Z,6442.00
2023-02-16T11:37:16.357Z,2770.00
2023-02-16T11:38:16.227Z,17595.00
2023-02-16T11:39:16.258Z,17891.00
2023-02-16T11:40:16.133Z,13697.00
2023-02-16T11:41:16.249Z,16163.00
2023-02-16T11:42:16.210Z,19270.00
2023-02-16T11:43:16.255Z,15558.00
2023-02-16T11:44:17.117Z,17827.00
2023-02-16T11:45:16.289Z,16023.00
2023-02-16T11:46:16.163Z,17475.00
2023-02-16T11:47:16.239Z,17716.00
2023-02-16T11:48:16.202Z,12544.00
2023-02-16T11:49:16.169Z,11390.00
2023-02-16T11:50:16.133Z,10388.00
2023-02-16T11:51:16.257Z,9665.00
2023-02-16T11:52:16.041Z,8977.00
2023-02-16T11:53:16.217Z,8623.00
2023-02-16T11:54:16.104Z,8129.00
2023-02-16T11:55:16.129Z,9462.00
2023-02-16T11:56:16.155Z,8814.00
2023-02-16T11:57:16.113Z,8465.00
2023-02-16T11:58:16.065Z,8127.00
2023-02-16T11:59:16.112Z,7572.00
2023-02-16T12:00:16.101Z,7209.00
2023-02-16T12:01:16.164Z,7413.00
2023-02-16T12:02:16.037Z,7704.00
2023-02-16T12:03:17.006Z,13575.00
2023-02-16T12:04:16.099Z,6819.00
2023-02-16T12:05:16.217Z,15591.00
2023-02-16T12:06:16.089Z,12557.00
2023-02-16T12:07:15.831Z,9673.00
2023-02-16T12:08:15.966Z,8659.00
2023-02-16T12:09:15.940Z,8722.00
2023-02-16T12:10:15.975Z,5227.00
2023-02-16T12:11:16.013Z,13085.00
2023-02-16T12:12:15.974Z,11000.00
2023-02-16T12:13:16.097Z,8912.00
2023-02-16T12:14:15.935Z,12276.00
2023-02-16T12:15:15.920Z,11936.00
2023-02-16T12:16:15.880Z,11822.00
2023-02-16T12:17:15.935Z,11314.00
2023-02-16T12:18:15.928Z,10911.00
2023-02-16T12:19:15.843Z,10402.00
2023-02-16T12:20:15.839Z,9063.00
2023-02-16T12:21:17.284Z,9156.00
2023-02-16T12:22:15.914Z,9051.00
2023-02-16T12:23:15.909Z,8427.00
2023-02-16T12:24:15.794Z,7664.00
2023-02-16T12:25:15.851Z,7028.00
2023-02-16T12:26:15.849Z,6341.00
2023-02-16T12:27:15.840Z,5695.00
2023-02-16T12:28:15.759Z,5094.00
2023-02-16T12:29:15.837Z,4633.00
2023-02-16T12:30:15.781Z,4342.00
2023-02-16T12:31:15.964Z,4229.00
2023-02-16T12:32:15.766Z,4245.00
2023-02-16T12:33:15.768Z,4336.00
2023-02-16T12:34:15.702Z,4514.00
2023-02-16T12:35:15.729Z,4647.00
2023-02-16T12:36:15.721Z,4754.00
2023-02-16T12:37:15.726Z,4776.00
2023-02-16T12:38:15.716Z,4803.00
2023-02-16T12:39:15.709Z,4865.00